Norbeck, South Dakota
Current Conditions -  °F | °C
As of 1:53 PM on Monday 22 Dec 2014 (Local Time) from KABR Reporting Station
Light Rain Light Rain  
Wind Chill: 32°   Ceiling: 600
Heat Index: 37°   Visibility: 5mi
Dew Point: 34°   Wind: 6mph
Humidity: 89%   Direction: 20°NNE
Pressure: 29.4"   Gusts: NA
Location:  45.0672°N, 99.0996°W
Report Text: KABR 221953Z AUTO 02005KT 5SM -RA BR OVC006 03/01 A2940 RMK AO2 UPB19E33RAB21 SLP967 P0000 T00280011
Loading
Personal Weather Stations






























Interactive Weather Map New forecast layout! Learn more

10-Day Weather Forecast

Advertisements
Track Severe Weather on mobile